createdAt,value
2023-05-08T00:00:20.246Z,8.89
2023-05-08T00:01:20.573Z,8.87
2023-05-08T00:02:21.110Z,8.86
2023-05-08T00:03:21.366Z,8.86
2023-05-08T00:04:21.616Z,8.84
2023-05-08T00:05:21.851Z,8.84
2023-05-08T00:06:22.146Z,8.84
2023-05-08T00:07:22.457Z,8.86
2023-05-08T00:08:22.784Z,8.87
2023-05-08T00:09:23.084Z,8.86
2023-05-08T00:10:23.389Z,8.81
2023-05-08T00:11:23.712Z,8.80
2023-05-08T00:12:24.032Z,8.81
2023-05-08T00:13:24.456Z,8.81
2023-05-08T00:14:24.665Z,8.81
2023-05-08T00:15:24.997Z,8.81
2023-05-08T00:16:25.230Z,8.77
2023-05-08T00:17:25.535Z,8.74
2023-05-08T00:18:25.849Z,8.73
2023-05-08T00:19:26.168Z,8.70
2023-05-08T00:20:26.493Z,8.71
2023-05-08T00:21:26.818Z,8.70
2023-05-08T00:22:27.152Z,8.70
2023-05-08T00:23:27.495Z,8.68
2023-05-08T00:24:27.854Z,8.66
2023-05-08T00:25:28.149Z,8.66
2023-05-08T00:26:28.469Z,8.66
2023-05-08T00:27:28.791Z,8.66
2023-05-08T00:28:29.133Z,8.68
2023-05-08T00:29:29.458Z,8.70
2023-05-08T00:30:29.754Z,8.68
2023-05-08T00:31:30.145Z,8.68
2023-05-08T00:32:30.457Z,8.66
2023-05-08T00:33:30.609Z,8.65
2023-05-08T00:34:30.927Z,8.62
2023-05-08T00:35:31.270Z,8.63
2023-05-08T00:36:31.646Z,8.65
2023-05-08T00:37:31.869Z,8.65
2023-05-08T00:38:32.150Z,8.68
2023-05-08T00:39:32.471Z,8.66
2023-05-08T00:40:32.787Z,8.66
2023-05-08T00:41:33.087Z,8.66
2023-05-08T00:42:33.395Z,8.65
2023-05-08T00:43:33.682Z,8.68
2023-05-08T00:44:33.978Z,8.66
2023-05-08T00:45:34.334Z,8.63
2023-05-08T00:46:34.603Z,8.62
2023-05-08T00:47:34.844Z,8.59
2023-05-08T00:48:35.025Z,8.59
2023-05-08T00:49:35.343Z,8.58
2023-05-08T00:50:35.672Z,8.56
2023-05-08T00:51:35.975Z,8.61
2023-05-08T00:52:36.318Z,8.61
2023-05-08T00:53:36.620Z,8.58
2023-05-08T00:54:36.899Z,8.58
2023-05-08T00:55:37.225Z,8.61
2023-05-08T00:56:37.533Z,8.59
2023-05-08T00:57:37.955Z,8.59
2023-05-08T00:58:38.108Z,8.62
2023-05-08T00:59:38.432Z,8.62
2023-05-08T01:00:38.761Z,8.56
2023-05-08T01:01:39.199Z,8.55
2023-05-08T01:02:39.480Z,8.50
2023-05-08T01:03:39.842Z,8.50
2023-05-08T01:04:39.921Z,8.48
2023-05-08T01:05:40.248Z,8.50
2023-05-08T01:06:40.546Z,8.48
2023-05-08T01:07:40.856Z,8.47
2023-05-08T01:08:41.148Z,8.45
2023-05-08T01:09:41.462Z,8.41
2023-05-08T01:10:41.763Z,8.41
2023-05-08T01:11:42.057Z,8.40
2023-05-08T01:12:42.398Z,8.38
2023-05-08T01:13:42.723Z,8.36
2023-05-08T01:14:43.080Z,8.34
2023-05-08T01:15:43.401Z,8.33
2023-05-08T01:16:43.672Z,8.30
2023-05-08T01:17:44.035Z,8.30
2023-05-08T01:18:44.344Z,8.29
2023-05-08T01:19:44.691Z,8.26
2023-05-08T01:20:44.879Z,8.26
2023-05-08T01:21:45.176Z,8.25
2023-05-08T01:22:45.493Z,8.25
2023-05-08T01:23:45.805Z,8.25
2023-05-08T01:24:46.134Z,8.26
2023-05-08T01:25:46.458Z,8.25
2023-05-08T01:26:46.760Z,8.23
2023-05-08T01:27:47.076Z,8.23
2023-05-08T01:28:47.378Z,8.20
2023-05-08T01:29:47.705Z,8.22
2023-05-08T01:30:48.020Z,8.20
2023-05-08T01:31:48.355Z,8.20
2023-05-08T01:32:48.716Z,8.19
2023-05-08T01:33:48.968Z,8.22
2023-05-08T01:34:49.165Z,8.20
2023-05-08T01:35:49.451Z,8.19
2023-05-08T01:36:49.752Z,8.18
2023-05-08T01:37:50.127Z,8.15
2023-05-08T01:38:50.415Z,8.12
2023-05-08T01:39:50.721Z,8.16
2023-05-08T01:40:51.046Z,8.16
2023-05-08T01:41:51.345Z,8.12
2023-05-08T01:42:51.673Z,8.12
2023-05-08T01:43:51.976Z,8.11
2023-05-08T01:44:52.264Z,8.08
2023-05-08T01:45:52.581Z,8.04
2023-05-08T01:46:52.933Z,8.00
2023-05-08T01:47:53.306Z,7.95
2023-05-08T01:48:53.470Z,7.98
2023-05-08T01:49:53.773Z,7.98
2023-05-08T01:50:54.081Z,7.95
2023-05-08T01:51:54.403Z,7.92
2023-05-08T01:52:54.749Z,7.89
2023-05-08T01:53:54.929Z,7.87
2023-05-08T01:54:55.200Z,7.82
2023-05-08T01:55:55.539Z,7.82
2023-05-08T01:56:55.857Z,7.82
2023-05-08T01:57:56.173Z,7.79
2023-05-08T01:58:56.517Z,7.75
2023-05-08T01:59:56.842Z,7.72
2023-05-08T02:00:57.161Z,7.74
2023-05-08T02:01:57.513Z,7.71
2023-05-08T02:02:57.792Z,7.71
2023-05-08T02:03:58.089Z,7.68
2023-05-08T02:04:58.272Z,7.68
2023-05-08T02:05:58.639Z,7.68
2023-05-08T02:06:58.952Z,7.64
2023-05-08T02:07:59.296Z,7.67
2023-05-08T02:08:59.553Z,7.67
2023-05-08T02:09:59.740Z,7.64
2023-05-08T02:11:00.107Z,7.64
2023-05-08T02:12:00.292Z,7.60
2023-05-08T02:13:00.634Z,7.60
2023-05-08T02:14:00.982Z,7.57
2023-05-08T02:15:01.169Z,7.57
2023-05-08T02:16:01.511Z,7.52
2023-05-08T02:17:01.926Z,7.50
2023-05-08T02:18:02.229Z,7.49
2023-05-08T02:19:02.439Z,7.48
2023-05-08T02:20:02.774Z,7.48
2023-05-08T02:21:03.062Z,7.46
2023-05-08T02:22:03.386Z,7.48
2023-05-08T02:23:03.728Z,7.50
2023-05-08T02:24:04.017Z,7.48
2023-05-08T02:25:04.343Z,7.49
2023-05-08T02:26:04.628Z,7.52
2023-05-08T02:27:05.014Z,7.48
2023-05-08T02:28:05.305Z,7.45
2023-05-08T02:29:05.654Z,7.43
2023-05-08T02:30:05.989Z,7.39
2023-05-08T02:31:06.300Z,7.42
2023-05-08T02:32:06.633Z,7.40
2023-05-08T02:33:06.848Z,7.37
2023-05-08T02:34:07.128Z,7.35
2023-05-08T02:35:07.424Z,7.32
2023-05-08T02:36:07.732Z,7.32
2023-05-08T02:37:08.023Z,7.32
2023-05-08T02:38:08.332Z,7.35
2023-05-08T02:39:08.697Z,7.35
2023-05-08T02:40:08.881Z,7.35
2023-05-08T02:41:09.218Z,7.35
2023-05-08T02:42:09.547Z,7.35
2023-05-08T02:43:09.867Z,7.32
2023-05-08T02:44:10.205Z,7.32
2023-05-08T02:45:10.502Z,7.28
2023-05-08T02:46:10.887Z,7.27
2023-05-08T02:47:11.057Z,7.27
2023-05-08T02:48:11.366Z,7.25
2023-05-08T02:49:11.728Z,7.27
2023-05-08T02:50:12.156Z,7.25
2023-05-08T02:51:12.261Z,7.27
2023-05-08T02:52:12.590Z,7.28
2023-05-08T02:53:12.969Z,7.27
2023-05-08T02:54:13.182Z,7.24
2023-05-08T02:55:13.512Z,7.23
2023-05-08T02:56:13.854Z,7.21
2023-05-08T02:57:14.193Z,7.21
2023-05-08T02:58:14.547Z,7.21
2023-05-08T02:59:14.871Z,7.16
2023-05-08T03:00:15.206Z,7.15
2023-05-08T03:01:15.591Z,7.12
2023-05-08T03:02:15.900Z,7.10
2023-05-08T03:03:16.303Z,7.07
2023-05-08T03:04:16.475Z,7.06
2023-05-08T03:05:16.844Z,7.02
2023-05-08T03:06:17.119Z,6.99
2023-05-08T03:07:17.472Z,6.97
2023-05-08T03:08:17.698Z,6.95
2023-05-08T03:09:18.025Z,6.94
2023-05-08T03:10:18.223Z,6.92
2023-05-08T03:11:18.577Z,6.95
2023-05-08T03:12:18.798Z,6.95
2023-05-08T03:13:19.117Z,6.94
2023-05-08T03:14:19.357Z,6.92
2023-05-08T03:15:19.717Z,6.89
2023-05-08T03:16:19.994Z,6.94
2023-05-08T03:17:20.267Z,6.95
2023-05-08T03:18:20.449Z,6.97
2023-05-08T03:19:22.417Z,6.97
2023-05-08T03:20:21.058Z,6.95
2023-05-08T03:21:21.173Z,6.94
2023-05-08T03:22:21.389Z,6.92
2023-05-08T03:23:21.747Z,6.92
2023-05-08T03:24:22.067Z,6.92
2023-05-08T03:25:22.392Z,6.92
2023-05-08T03:26:22.627Z,6.92
2023-05-08T03:27:22.894Z,6.92
2023-05-08T03:28:23.088Z,6.95
2023-05-08T03:29:23.431Z,6.97
2023-05-08T03:30:23.754Z,6.97
2023-05-08T03:31:24.206Z,6.99
2023-05-08T03:32:24.437Z,6.98
2023-05-08T03:33:24.676Z,7.03
2023-05-08T03:34:24.900Z,6.99
2023-05-08T03:35:25.145Z,6.99
2023-05-08T03:36:25.352Z,6.97
2023-05-08T03:37:25.685Z,6.98
2023-05-08T03:38:26.016Z,6.97
2023-05-08T03:39:26.390Z,7.02
2023-05-08T03:40:26.592Z,7.03
2023-05-08T03:41:26.930Z,7.06
2023-05-08T03:42:27.270Z,7.02
2023-05-08T03:43:27.610Z,7.02
2023-05-08T03:44:27.942Z,6.98
2023-05-08T03:45:28.168Z,6.97
2023-05-08T03:46:28.584Z,6.98
2023-05-08T03:47:28.804Z,6.97
2023-05-08T03:48:29.014Z,6.98
2023-05-08T03:49:29.262Z,6.99
2023-05-08T03:50:29.480Z,6.97
2023-05-08T03:51:29.747Z,7.02
2023-05-08T03:52:29.949Z,7.02
2023-05-08T03:53:30.223Z,7.02
2023-05-08T03:54:30.494Z,7.03
2023-05-08T03:55:30.718Z,7.06
2023-05-08T03:56:30.985Z,7.06
2023-05-08T03:57:31.226Z,7.06
2023-05-08T03:58:31.459Z,7.06
2023-05-08T03:59:31.741Z,7.05
2023-05-08T04:00:31.949Z,7.03
2023-05-08T04:01:32.330Z,7.05
2023-05-08T04:02:32.706Z,7.10
2023-05-08T04:03:32.923Z,7.13
2023-05-08T04:04:33.192Z,7.13
2023-05-08T04:05:33.396Z,7.17
2023-05-08T04:06:45.791Z,7.21
2023-05-08T04:07:35.132Z,7.24
2023-05-08T04:08:34.402Z,7.24
2023-05-08T04:09:34.683Z,7.24
2023-05-08T04:10:34.903Z,7.28
2023-05-08T04:11:35.122Z,7.31
2023-05-08T04:12:35.382Z,7.34
2023-05-08T04:13:35.637Z,7.37
2023-05-08T04:14:35.840Z,7.37
2023-05-08T04:15:36.119Z,7.39
2023-05-08T04:16:36.393Z,7.37
2023-05-08T04:17:36.689Z,7.37
2023-05-08T04:18:36.908Z,7.40
2023-05-08T04:19:37.187Z,7.45
2023-05-08T04:20:37.406Z,7.43
2023-05-08T04:21:37.758Z,7.45
2023-05-08T04:22:38.052Z,7.46
2023-05-08T04:23:38.310Z,7.48
2023-05-08T04:24:38.514Z,7.48
2023-05-08T04:25:38.794Z,7.48
2023-05-08T04:26:39.038Z,7.48
2023-05-08T04:27:39.268Z,7.50
2023-05-08T04:28:39.516Z,7.50
2023-05-08T04:29:39.745Z,7.50
2023-05-08T04:30:39.988Z,7.57
2023-05-08T04:31:40.312Z,7.58
2023-05-08T04:32:41.853Z,7.60
2023-05-08T04:33:40.800Z,7.63
2023-05-08T04:34:41.058Z,7.67
2023-05-08T04:35:41.320Z,7.69
2023-05-08T04:36:41.545Z,7.71
2023-05-08T04:37:41.883Z,7.72
2023-05-08T04:38:42.144Z,7.72
2023-05-08T04:39:43.765Z,7.74
2023-05-08T04:40:42.595Z,7.75
2023-05-08T04:41:42.842Z,7.79
2023-05-08T04:42:43.139Z,7.79
2023-05-08T04:43:43.355Z,7.80
2023-05-08T04:44:43.635Z,7.83
2023-05-08T04:45:43.939Z,7.83
2023-05-08T04:46:44.161Z,7.85
2023-05-08T04:47:44.535Z,7.87
2023-05-08T04:48:44.766Z,7.90
2023-05-08T04:49:45.014Z,7.92
2023-05-08T04:50:45.234Z,7.95
2023-05-08T04:51:45.614Z,7.97
2023-05-08T04:52:45.810Z,8.00
2023-05-08T04:53:46.133Z,8.01
2023-05-08T04:54:46.428Z,8.04
2023-05-08T04:55:46.633Z,8.10
2023-05-08T04:56:46.906Z,8.20
2023-05-08T04:57:47.183Z,8.38
2023-05-08T04:58:47.437Z,8.74
2023-05-08T04:59:47.690Z,9.26
2023-05-08T05:00:47.922Z,9.91
2023-05-08T05:01:48.252Z,10.61
2023-05-08T05:02:48.518Z,11.17
2023-05-08T05:03:48.766Z,11.57
2023-05-08T05:04:48.984Z,12.04
2023-05-08T05:05:49.247Z,12.37
2023-05-08T05:06:49.500Z,12.65
2023-05-08T05:07:49.769Z,12.96
2023-05-08T05:08:50.034Z,13.20
2023-05-08T05:09:50.281Z,13.38
2023-05-08T05:10:50.535Z,13.55
2023-05-08T05:11:50.793Z,13.85
2023-05-08T05:12:51.112Z,14.04
2023-05-08T05:13:51.328Z,14.12
2023-05-08T05:14:51.587Z,14.25
2023-05-08T05:15:51.868Z,14.24
2023-05-08T05:16:52.057Z,14.22
2023-05-08T05:17:52.349Z,14.20
2023-05-08T05:18:52.567Z,14.42
2023-05-08T05:19:53.460Z,14.68
2023-05-08T05:20:53.053Z,14.94
2023-05-08T05:21:53.320Z,15.19
2023-05-08T05:22:53.567Z,15.20
2023-05-08T05:23:53.821Z,15.17
2023-05-08T05:24:54.087Z,15.09
2023-05-08T05:25:54.328Z,15.13
2023-05-08T05:26:54.578Z,15.25
2023-05-08T05:27:54.839Z,15.44
2023-05-08T05:28:55.093Z,15.50
2023-05-08T05:29:55.377Z,15.51
2023-05-08T05:30:55.628Z,15.59
2023-05-08T05:31:55.976Z,15.53
2023-05-08T05:32:56.168Z,15.64
2023-05-08T05:33:56.426Z,15.60
2023-05-08T05:34:56.697Z,15.76
2023-05-08T05:35:57.047Z,15.84
2023-05-08T05:36:57.316Z,15.60
2023-05-08T05:37:57.584Z,15.62
2023-05-08T05:38:57.834Z,15.76
2023-05-08T05:39:58.086Z,15.87
2023-05-08T05:40:58.380Z,15.93
2023-05-08T05:41:58.655Z,16.12
2023-05-08T05:42:58.889Z,16.23
2023-05-08T05:43:59.157Z,16.14
2023-05-08T05:44:59.462Z,16.14
2023-05-08T05:45:59.723Z,16.11
2023-05-08T05:47:00.048Z,16.42
2023-05-08T05:48:00.389Z,16.79
2023-05-08T05:49:00.483Z,16.83
2023-05-08T05:50:00.745Z,16.73
2023-05-08T05:51:00.990Z,16.43
2023-05-08T05:52:01.263Z,16.33
2023-05-08T05:53:01.512Z,16.50
2023-05-08T05:54:01.764Z,16.52
2023-05-08T05:55:02.017Z,16.70
2023-05-08T05:56:02.285Z,16.64
2023-05-08T05:57:02.510Z,16.33
2023-05-08T05:58:02.763Z,16.45
2023-05-08T05:59:03.046Z,16.46
2023-05-08T06:00:03.399Z,16.60
2023-05-08T06:01:03.652Z,16.71
2023-05-08T06:02:03.999Z,16.76
2023-05-08T06:03:04.282Z,17.01
2023-05-08T06:04:04.574Z,17.21
2023-05-08T06:05:04.611Z,17.36
2023-05-08T06:06:04.869Z,17.64
2023-05-08T06:07:05.121Z,17.66
2023-05-08T06:08:05.382Z,17.54
2023-05-08T06:09:05.657Z,17.62
2023-05-08T06:10:05.914Z,17.78
2023-05-08T06:11:06.148Z,18.17
2023-05-08T06:12:06.429Z,18.07
2023-05-08T06:13:06.744Z,17.89
2023-05-08T06:14:06.993Z,17.77
2023-05-08T06:15:07.354Z,17.74
2023-05-08T06:16:07.659Z,17.54
2023-05-08T06:17:08.111Z,17.72
2023-05-08T06:18:08.284Z,17.74
2023-05-08T06:19:08.530Z,17.77
2023-05-08T06:20:08.817Z,18.00
2023-05-08T06:21:09.067Z,17.96
2023-05-08T06:22:09.334Z,17.96
2023-05-08T06:23:09.671Z,18.02
2023-05-08T06:24:09.827Z,17.97
2023-05-08T06:25:10.227Z,18.03
2023-05-08T06:26:10.565Z,18.14
2023-05-08T06:27:10.691Z,18.15
2023-05-08T06:28:10.978Z,17.72
2023-05-08T06:29:11.209Z,17.71
2023-05-08T06:30:11.503Z,17.84
2023-05-08T06:31:11.875Z,17.58
2023-05-08T06:32:12.020Z,17.59
2023-05-08T06:33:12.269Z,17.66
2023-05-08T06:34:12.520Z,17.89
2023-05-08T06:35:12.976Z,17.56
2023-05-08T06:36:13.032Z,17.38
2023-05-08T06:37:13.286Z,17.37
2023-05-08T06:38:13.541Z,17.48
2023-05-08T06:39:14.557Z,17.52
2023-05-08T06:40:14.173Z,17.11
2023-05-08T06:41:15.425Z,16.79
2023-05-08T06:42:14.680Z,16.58
2023-05-08T06:43:14.931Z,16.24
2023-05-08T06:44:15.182Z,15.94
2023-05-08T06:45:15.744Z,15.46
2023-05-08T06:46:15.809Z,15.02
2023-05-08T06:47:16.035Z,14.60
2023-05-08T06:48:16.263Z,14.24
2023-05-08T06:49:16.512Z,13.91
2023-05-08T06:50:16.754Z,13.62
2023-05-08T06:51:17.023Z,13.33
2023-05-08T06:52:17.249Z,13.19
2023-05-08T06:53:17.564Z,13.07
2023-05-08T06:54:17.790Z,13.00
2023-05-08T06:55:18.035Z,12.93
2023-05-08T06:56:18.304Z,12.90
2023-05-08T06:57:18.556Z,12.82
2023-05-08T06:58:18.811Z,12.74
2023-05-08T06:59:19.038Z,12.68
2023-05-08T07:00:19.345Z,12.68
2023-05-08T07:01:19.689Z,12.68
2023-05-08T07:02:19.961Z,12.68
2023-05-08T07:03:20.205Z,12.64
2023-05-08T07:04:20.454Z,12.62
2023-05-08T07:05:20.767Z,12.60
2023-05-08T07:06:20.966Z,12.57
2023-05-08T07:07:21.213Z,12.59
2023-05-08T07:08:21.497Z,12.57
2023-05-08T07:09:21.796Z,12.57
2023-05-08T07:10:22.044Z,12.54
2023-05-08T07:11:22.303Z,12.54
2023-05-08T07:12:22.550Z,12.54
2023-05-08T07:13:22.833Z,12.57
2023-05-08T07:14:23.073Z,12.56
2023-05-08T07:15:26.535Z,12.57
2023-05-08T07:16:23.678Z,12.59
2023-05-08T07:17:23.904Z,12.59
2023-05-08T07:18:24.149Z,12.59
2023-05-08T07:19:24.444Z,12.56
2023-05-08T07:20:24.846Z,12.56
2023-05-08T07:21:24.982Z,12.56
2023-05-08T07:22:25.289Z,12.53
2023-05-08T07:23:26.024Z,12.53
2023-05-08T07:24:25.794Z,12.53
2023-05-08T07:25:26.101Z,12.56
2023-05-08T07:26:26.318Z,12.53
2023-05-08T07:27:26.568Z,12.53
2023-05-08T07:28:26.818Z,12.53
2023-05-08T07:29:27.136Z,12.50
2023-05-08T07:30:27.452Z,12.50
2023-05-08T07:31:27.859Z,12.53
2023-05-08T07:32:28.113Z,12.53
2023-05-08T07:33:28.226Z,12.53
2023-05-08T07:34:28.485Z,12.54
2023-05-08T07:35:28.793Z,12.56
2023-05-08T07:36:29.085Z,12.57
2023-05-08T07:37:29.364Z,12.57
2023-05-08T07:38:29.583Z,12.57
2023-05-08T07:39:29.891Z,12.57
2023-05-08T07:40:30.126Z,12.53
2023-05-08T07:41:30.516Z,12.53
2023-05-08T07:42:30.673Z,12.53
2023-05-08T07:43:30.946Z,12.53
2023-05-08T07:44:37.288Z,12.53
2023-05-08T07:45:32.490Z,12.50
2023-05-08T07:46:31.900Z,12.50
2023-05-08T07:47:32.214Z,12.49
2023-05-08T07:48:32.432Z,12.47
2023-05-08T07:49:32.647Z,12.46
2023-05-08T07:50:32.931Z,12.46
2023-05-08T07:51:33.172Z,12.46
2023-05-08T07:52:33.426Z,12.47
2023-05-08T07:53:33.755Z,12.50
2023-05-08T07:54:34.044Z,12.52
2023-05-08T07:55:34.307Z,12.52
2023-05-08T07:56:34.605Z,12.53
2023-05-08T07:57:34.880Z,12.56
2023-05-08T07:58:35.167Z,12.56
2023-05-08T07:59:35.433Z,12.53
2023-05-08T08:00:35.699Z,12.54
2023-05-08T08:01:36.020Z,12.57
2023-05-08T08:02:36.418Z,12.59
2023-05-08T08:03:36.619Z,12.65
2023-05-08T08:04:36.932Z,12.65
2023-05-08T08:05:37.014Z,12.68
2023-05-08T08:06:37.239Z,12.68
2023-05-08T08:07:37.531Z,12.72
2023-05-08T08:08:37.767Z,12.75
2023-05-08T08:09:38.115Z,12.79
2023-05-08T08:10:38.421Z,12.82
2023-05-08T08:11:38.660Z,12.79
2023-05-08T08:12:38.917Z,12.79
2023-05-08T08:13:39.169Z,12.82
2023-05-08T08:14:39.418Z,12.85
2023-05-08T08:15:39.668Z,12.87
2023-05-08T08:16:39.954Z,12.85
2023-05-08T08:17:40.202Z,12.86
2023-05-08T08:18:40.459Z,12.90
2023-05-08T08:19:40.671Z,12.95
2023-05-08T08:20:40.960Z,12.93
2023-05-08T08:21:41.194Z,12.95
2023-05-08T08:22:41.446Z,12.95
2023-05-08T08:23:41.679Z,12.96
2023-05-08T08:24:41.964Z,12.96
2023-05-08T08:25:49.900Z,12.92
2023-05-08T08:26:42.415Z,12.92
2023-05-08T08:27:42.773Z,12.95
2023-05-08T08:28:43.022Z,12.93
2023-05-08T08:29:43.238Z,12.93
2023-05-08T08:30:43.512Z,12.93
2023-05-08T08:31:43.790Z,12.96
2023-05-08T08:32:44.033Z,13.01
2023-05-08T08:33:44.241Z,13.04
2023-05-08T08:34:44.525Z,13.07
2023-05-08T08:35:44.808Z,13.07
2023-05-08T08:36:45.025Z,13.08
2023-05-08T08:37:45.328Z,13.03
2023-05-08T08:38:45.529Z,13.00
2023-05-08T08:39:45.855Z,13.03
2023-05-08T08:40:46.123Z,13.05
2023-05-08T08:41:46.358Z,13.10
2023-05-08T08:42:46.608Z,13.12
2023-05-08T08:43:46.836Z,13.17
2023-05-08T08:44:47.083Z,13.17
2023-05-08T08:45:47.322Z,13.15
2023-05-08T08:46:47.625Z,13.12
2023-05-08T08:47:47.888Z,13.08
2023-05-08T08:48:48.062Z,13.10
2023-05-08T08:49:48.306Z,13.12
2023-05-08T08:50:48.567Z,13.15
2023-05-08T08:51:48.859Z,13.15
2023-05-08T08:52:49.133Z,13.14
2023-05-08T08:53:49.405Z,13.14
2023-05-08T08:54:49.663Z,13.15
2023-05-08T08:55:49.961Z,13.19
2023-05-08T08:56:50.230Z,13.17
2023-05-08T08:57:50.544Z,13.19
2023-05-08T08:58:50.820Z,13.22
2023-05-08T08:59:51.044Z,13.28
2023-05-08T09:00:51.270Z,13.33
2023-05-08T09:01:51.582Z,13.38
2023-05-08T09:02:51.856Z,13.38
2023-05-08T09:03:52.225Z,13.42
2023-05-08T09:04:52.450Z,13.42
2023-05-08T09:05:52.715Z,13.44
2023-05-08T09:06:52.998Z,13.42
2023-05-08T09:07:53.227Z,13.44
2023-05-08T09:08:53.464Z,13.42
2023-05-08T09:09:53.695Z,13.45
2023-05-08T09:10:54.001Z,13.49
2023-05-08T09:11:54.308Z,13.52
2023-05-08T09:12:54.605Z,13.59
2023-05-08T09:13:54.806Z,13.60
2023-05-08T09:14:55.049Z,13.64
2023-05-08T09:15:55.354Z,13.66
2023-05-08T09:16:55.594Z,13.70
2023-05-08T09:17:56.689Z,13.71
2023-05-08T09:18:56.102Z,13.75
2023-05-08T09:19:56.344Z,13.77
2023-05-08T09:20:56.651Z,13.77
2023-05-08T09:21:57.213Z,13.81
2023-05-08T09:22:57.158Z,13.78
2023-05-08T09:23:57.470Z,13.79
2023-05-08T09:24:57.713Z,13.81
2023-05-08T09:25:58.005Z,13.82
2023-05-08T09:26:58.216Z,13.85
2023-05-08T09:27:58.510Z,13.88
2023-05-08T09:28:58.747Z,13.89
2023-05-08T09:29:59.062Z,13.91
2023-05-08T09:30:59.295Z,13.95
2023-05-08T09:31:59.564Z,13.92
2023-05-08T09:32:59.830Z,13.95
2023-05-08T09:34:00.053Z,13.95
2023-05-08T09:35:00.278Z,13.97
2023-05-08T09:36:00.634Z,13.96
2023-05-08T09:37:00.870Z,13.96
2023-05-08T09:38:01.123Z,14.00
2023-05-08T09:39:01.385Z,13.97
2023-05-08T09:40:01.614Z,13.95
2023-05-08T09:41:02.179Z,13.99
2023-05-08T09:42:02.085Z,13.99
2023-05-08T09:43:02.339Z,14.00
2023-05-08T09:44:02.614Z,14.04
2023-05-08T09:45:02.824Z,14.06
2023-05-08T09:46:03.060Z,14.09
2023-05-08T09:47:03.279Z,14.09
2023-05-08T09:48:03.578Z,14.12
2023-05-08T09:49:03.849Z,14.14
2023-05-08T09:50:04.031Z,14.15
2023-05-08T09:51:04.261Z,14.18
2023-05-08T09:52:04.577Z,14.22
2023-05-08T09:53:04.819Z,14.27
2023-05-08T09:54:05.087Z,14.25
2023-05-08T09:55:05.345Z,14.25
2023-05-08T09:56:05.586Z,14.25
2023-05-08T09:57:05.810Z,14.27
2023-05-08T09:58:06.196Z,14.22
2023-05-08T09:59:06.428Z,14.22
2023-05-08T10:00:06.692Z,14.20
2023-05-08T10:01:07.013Z,14.22
2023-05-08T10:02:07.268Z,14.25
2023-05-08T10:03:07.666Z,14.29
2023-05-08T10:04:07.915Z,14.29
2023-05-08T10:05:08.245Z,14.32
2023-05-08T10:06:08.589Z,14.29
2023-05-08T10:07:08.714Z,14.25
2023-05-08T10:08:08.922Z,14.25
2023-05-08T10:09:09.142Z,14.25
2023-05-08T10:10:09.447Z,14.27
2023-05-08T10:11:09.742Z,14.27
2023-05-08T10:12:10.072Z,14.21
2023-05-08T10:13:10.257Z,14.22
2023-05-08T10:14:10.530Z,14.21
2023-05-08T10:15:10.748Z,14.24
2023-05-08T10:16:11.154Z,14.27
2023-05-08T10:17:12.290Z,14.28
2023-05-08T10:18:11.679Z,14.33
2023-05-08T10:19:11.876Z,14.37
2023-05-08T10:20:12.437Z,14.42
2023-05-08T10:21:12.479Z,14.47
2023-05-08T10:22:12.742Z,14.52
2023-05-08T10:23:13.013Z,14.55
2023-05-08T10:24:13.243Z,14.60
2023-05-08T10:25:13.681Z,14.62
2023-05-08T10:26:13.824Z,14.68
2023-05-08T10:27:14.058Z,14.70
2023-05-08T10:28:14.289Z,14.70
2023-05-08T10:29:14.551Z,14.70
2023-05-08T10:30:15.146Z,14.60
2023-05-08T10:31:15.175Z,14.58
2023-05-08T10:32:15.371Z,14.57
2023-05-08T10:33:15.708Z,14.55
2023-05-08T10:34:15.954Z,14.58
2023-05-08T10:35:16.232Z,14.60
2023-05-08T10:36:16.476Z,14.62
2023-05-08T10:37:16.705Z,14.68
2023-05-08T10:38:17.079Z,14.70
2023-05-08T10:39:17.309Z,14.75
2023-05-08T10:40:17.608Z,14.78
2023-05-08T10:41:17.805Z,14.84
2023-05-08T10:42:18.037Z,14.86
2023-05-08T10:43:18.965Z,14.92
2023-05-08T10:44:18.525Z,14.94
2023-05-08T10:45:18.780Z,15.01
2023-05-08T10:46:19.033Z,15.02
2023-05-08T10:47:19.219Z,15.03
2023-05-08T10:48:19.669Z,14.95
2023-05-08T10:49:20.020Z,14.89
2023-05-08T10:50:20.223Z,14.84
2023-05-08T10:51:20.464Z,14.81
2023-05-08T10:52:20.709Z,14.78
2023-05-08T10:53:21.016Z,14.77
2023-05-08T10:54:21.243Z,14.80
2023-05-08T10:55:21.504Z,14.80
2023-05-08T10:56:21.757Z,14.75
2023-05-08T10:57:22.050Z,14.75
2023-05-08T10:58:22.336Z,14.80
2023-05-08T10:59:22.585Z,14.80
2023-05-08T11:00:22.810Z,14.88
2023-05-08T11:01:23.212Z,14.92
2023-05-08T11:02:23.425Z,14.99
2023-05-08T11:03:31.174Z,15.03
2023-05-08T11:04:25.117Z,15.09
2023-05-08T11:05:24.182Z,15.13
2023-05-08T11:06:24.442Z,15.19
2023-05-08T11:07:24.714Z,15.21
2023-05-08T11:08:25.009Z,15.23
2023-05-08T11:09:25.276Z,15.27
2023-05-08T11:10:25.513Z,15.25
2023-05-08T11:11:25.757Z,15.20
2023-05-08T11:12:26.127Z,15.17
2023-05-08T11:13:26.434Z,15.20
2023-05-08T11:14:26.660Z,15.21
2023-05-08T11:15:26.965Z,15.25
2023-05-08T11:16:27.314Z,15.28
2023-05-08T11:17:27.650Z,15.31
2023-05-08T11:18:32.535Z,15.32
2023-05-08T11:19:29.106Z,15.34
2023-05-08T11:20:29.180Z,15.32
2023-05-08T11:21:28.882Z,15.31
2023-05-08T11:22:29.074Z,15.31
2023-05-08T11:23:29.220Z,15.34
2023-05-08T11:24:29.493Z,15.35
2023-05-08T11:25:29.989Z,15.38
2023-05-08T11:26:29.941Z,15.41
2023-05-08T11:27:30.167Z,15.47
2023-05-08T11:28:30.633Z,15.50
2023-05-08T11:29:30.664Z,15.49
2023-05-08T11:30:30.907Z,15.46
2023-05-08T11:31:31.202Z,15.44
2023-05-08T11:32:31.790Z,15.46
2023-05-08T11:33:31.692Z,15.47
2023-05-08T11:34:31.956Z,15.49
2023-05-08T11:35:32.202Z,15.50
2023-05-08T11:36:32.456Z,15.50
2023-05-08T11:37:32.679Z,15.49
2023-05-08T11:38:32.938Z,15.46
2023-05-08T11:39:33.207Z,15.46
2023-05-08T11:40:33.413Z,15.47
2023-05-08T11:41:33.667Z,15.47
2023-05-08T11:42:33.900Z,15.46
2023-05-08T11:43:34.221Z,15.47
2023-05-08T11:44:34.415Z,15.47
2023-05-08T11:45:34.696Z,15.49
2023-05-08T11:46:34.958Z,15.50
2023-05-08T11:47:35.230Z,15.53
2023-05-08T11:48:35.476Z,15.54
2023-05-08T11:49:35.769Z,15.53
2023-05-08T11:50:36.016Z,15.54
2023-05-08T11:51:36.278Z,15.57
2023-05-08T11:52:36.516Z,15.59
2023-05-08T11:53:36.741Z,15.60
2023-05-08T11:54:37.036Z,15.60
2023-05-08T11:55:38.226Z,15.67
2023-05-08T11:56:37.540Z,15.69
2023-05-08T11:57:37.798Z,15.72
2023-05-08T11:58:38.074Z,15.75
2023-05-08T11:59:38.353Z,15.72
2023-05-08T12:00:38.600Z,15.72
2023-05-08T12:01:38.826Z,15.75
2023-05-08T12:02:39.206Z,15.75
2023-05-08T12:03:39.585Z,15.76
2023-05-08T12:04:39.715Z,15.78
2023-05-08T12:05:39.950Z,15.80
2023-05-08T12:06:40.173Z,15.83
2023-05-08T12:07:40.514Z,15.87
2023-05-08T12:08:40.907Z,15.89
2023-05-08T12:09:41.153Z,15.93
2023-05-08T12:10:41.386Z,15.93
2023-05-08T12:11:41.711Z,15.97
2023-05-08T12:12:42.069Z,16.00
2023-05-08T12:13:42.224Z,16.02
2023-05-08T12:14:42.448Z,16.05
2023-05-08T12:15:42.690Z,16.08
2023-05-08T12:16:42.927Z,16.09
2023-05-08T12:17:43.329Z,16.11
2023-05-08T12:18:43.468Z,16.12
2023-05-08T12:19:43.686Z,16.12
2023-05-08T12:20:43.918Z,16.09
2023-05-08T12:21:44.170Z,16.04
2023-05-08T12:22:44.430Z,16.05
2023-05-08T12:23:44.678Z,16.07
2023-05-08T12:24:44.922Z,16.07
2023-05-08T12:25:45.167Z,16.07
2023-05-08T12:26:45.409Z,16.08
2023-05-08T12:27:45.640Z,16.08
2023-05-08T12:28:45.868Z,16.11
2023-05-08T12:29:46.141Z,16.14
2023-05-08T12:30:46.378Z,16.14
2023-05-08T12:31:46.740Z,16.15
2023-05-08T12:32:47.038Z,16.20
2023-05-08T12:33:47.278Z,16.21
2023-05-08T12:34:47.490Z,16.24
2023-05-08T12:35:47.754Z,16.24
2023-05-08T12:36:48.027Z,16.27
2023-05-08T12:37:48.275Z,16.30
2023-05-08T12:38:48.520Z,16.33
2023-05-08T12:39:48.926Z,16.30
2023-05-08T12:40:49.006Z,16.33
2023-05-08T12:41:49.243Z,16.33
2023-05-08T12:42:49.484Z,16.30
2023-05-08T12:43:49.734Z,16.27
2023-05-08T12:44:49.976Z,16.25
2023-05-08T12:45:50.220Z,16.27
2023-05-08T12:46:50.520Z,16.25
2023-05-08T12:47:50.755Z,16.24
2023-05-08T12:48:50.984Z,16.23
2023-05-08T12:49:51.223Z,16.24
2023-05-08T12:50:51.479Z,16.24
2023-05-08T12:51:51.727Z,16.23
2023-05-08T12:52:52.215Z,16.21
2023-05-08T12:53:52.182Z,16.20
2023-05-08T12:54:52.413Z,16.12
2023-05-08T12:55:52.699Z,16.09
2023-05-08T12:56:52.909Z,16.11
2023-05-08T12:57:53.144Z,16.08
2023-05-08T12:58:53.369Z,16.05
2023-05-08T12:59:53.741Z,16.09
2023-05-08T13:00:53.979Z,16.12
2023-05-08T13:01:54.286Z,16.14
2023-05-08T13:02:54.614Z,16.20
2023-05-08T13:04:01.630Z,16.21
2023-05-08T13:04:56.373Z,16.21
2023-05-08T13:05:55.307Z,16.20